Time;durP1;ratioP1;P1;durP2;ratioP2;P2;SDS_P1;SDS_P2;PMS_P1;PMS_P2;Temp;Humidity;BMP_temperature;BMP_pressure;BME280_temperature;BME280_humidity;BME280_pressure;Samples;Min_cycle;Max_cycle;Signal;HPM_P1;HPM_P2
2022/06/10 00:01:07;;;;;;;4.90;4.10;;;12.40;99.90;;;;;;5071556;28;20490;-69
2022/06/10 00:03:35;;;;;;;5.47;4.00;;;12.30;99.90;;;;;;5072765;28;20459;-69
2022/06/10 00:06:06;;;;;;;4.00;3.57;;;12.30;99.90;;;;;;5072056;28;20945;-70
2022/06/10 00:08:35;;;;;;;4.00;3.50;;;12.30;99.90;;;;;;5072367;28;21121;-69
2022/06/10 00:11:03;;;;;;;6.00;3.90;;;12.30;99.90;;;;;;5071550;28;20466;-68
2022/06/10 00:13:33;;;;;;;5.03;3.67;;;12.20;99.90;;;;;;5071732;28;20455;-69
2022/06/10 00:16:02;;;;;;;4.70;4.10;;;12.10;99.90;;;;;;5072161;28;20447;-69
2022/06/10 00:18:31;;;;;;;6.37;4.10;;;12.10;99.90;;;;;;5072696;28;20449;-68
2022/06/10 00:20:59;;;;;;;5.10;3.93;;;12.10;99.90;;;;;;5071406;28;20599;-71
2022/06/10 00:23:27;;;;;;;5.13;3.80;;;12.00;99.90;;;;;;5072335;28;20449;-69
2022/06/10 00:25:53;;;;;;;7.60;4.20;;;12.00;99.90;;;;;;5071760;28;20494;-71
2022/06/10 00:28:21;;;;;;;6.60;4.00;;;12.00;99.90;;;;;;5072344;28;20860;-69
2022/06/10 00:30:48;;;;;;;9.07;4.70;;;12.00;99.90;;;;;;5071525;28;20462;-69
2022/06/10 00:33:16;;;;;;;8.37;4.13;;;12.00;99.90;;;;;;5072248;28;20524;-68
2022/06/10 00:35:43;;;;;;;5.27;3.97;;;11.90;99.90;;;;;;5071734;28;20443;-71
2022/06/10 00:38:11;;;;;;;4.37;3.97;;;11.90;99.90;;;;;;5071973;28;20458;-71
2022/06/10 00:40:42;;;;;;;8.20;4.60;;;11.90;99.90;;;;;;5070939;28;20512;-70
2022/06/10 00:43:14;;;;;;;7.80;4.70;;;11.90;99.90;;;;;;5071431;28;20453;-70
2022/06/10 00:45:56;;;;;;;5.70;4.40;;;11.80;99.90;;;;;;5071586;28;20505;-70
2022/06/10 00:48:30;;;;;;;4.97;4.10;;;11.70;99.90;;;;;;5071919;28;20465;-70
2022/06/10 00:50:58;;;;;;;5.40;3.90;;;11.80;99.90;;;;;;5070869;28;20472;-70
2022/06/10 00:53:31;;;;;;;7.63;4.13;;;11.80;99.90;;;;;;5071961;28;20443;-70
2022/06/10 00:56:01;;;;;;;6.30;4.07;;;11.80;99.90;;;;;;5071452;28;20504;-70
2022/06/10 00:58:33;;;;;;;7.90;4.57;;;11.70;99.90;;;;;;5071569;28;20547;-70
2022/06/10 01:01:01;;;;;;;6.07;3.80;;;11.70;99.90;;;;;;5070465;28;20494;-70
2022/06/10 01:03:30;;;;;;;5.60;4.37;;;11.60;99.90;;;;;;5071453;28;20937;-70
2022/06/10 01:05:57;;;;;;;6.10;3.90;;;11.60;99.90;;;;;;5071267;28;20461;-71
2022/06/10 01:08:24;;;;;;;6.47;4.30;;;11.60;99.90;;;;;;5071606;28;20443;-67
2022/06/10 01:11:17;;;;;;;5.13;3.93;;;11.60;99.90;;;;;;5070673;28;20463;-70
2022/06/10 01:13:54;;;;;;;5.17;4.40;;;11.60;99.90;;;;;;5071533;28;20448;-70
2022/06/10 01:16:30;;;;;;;7.70;5.20;;;11.50;99.90;;;;;;5071472;28;20447;-68
2022/06/10 01:19:07;;;;;;;8.97;4.97;;;11.50;99.90;;;;;;5072052;28;20451;-70
2022/06/10 01:22:21;;;;;;;6.07;4.50;;;11.50;99.90;;;;;;5070626;28;20493;-70
2022/06/10 01:25:03;;;;;;;6.27;5.33;;;11.60;99.90;;;;;;5008071;28;20449;-70
2022/06/10 01:27:59;;;;;;;5.20;4.23;;;11.60;99.90;;;;;;5009165;28;20446;-69
2022/06/10 01:30:52;;;;;;;10.90;5.00;;;11.50;99.90;;;;;;5057552;28;20538;-69
2022/06/10 01:33:28;;;;;;;6.90;4.43;;;11.50;99.90;;;;;;5071353;28;20443;-69
2022/06/10 01:36:03;;;;;;;7.27;4.73;;;11.40;99.90;;;;;;5070546;28;20996;-71
2022/06/10 01:38:38;;;;;;;6.83;4.50;;;11.30;99.90;;;;;;5071004;28;20434;-67
2022/06/10 01:41:12;;;;;;;10.23;5.30;;;11.20;99.90;;;;;;5069759;28;20489;-70
2022/06/10 01:43:52;;;;;;;6.23;4.90;;;11.30;99.90;;;;;;5071047;28;20469;-70
2022/06/10 01:46:28;;;;;;;5.70;5.07;;;11.20;99.90;;;;;;5070363;28;20550;-70
2022/06/10 01:49:07;;;;;;;7.77;4.50;;;11.10;99.90;;;;;;5070581;28;20948;-70
2022/06/10 01:51:43;;;;;;;7.47;4.83;;;11.10;99.90;;;;;;5069630;28;20851;-70
2022/06/10 01:54:22;;;;;;;7.97;5.20;;;11.10;99.90;;;;;;5070849;28;20443;-71
2022/06/10 01:56:53;;;;;;;8.30;4.70;;;11.10;99.90;;;;;;5070712;28;20447;-70
2022/06/10 01:59:24;;;;;;;9.00;4.50;;;11.10;99.90;;;;;;5070742;28;20462;-69
2022/06/10 02:01:55;;;;;;;7.30;5.10;;;11.10;99.90;;;;;;5069251;28;20490;-70
2022/06/10 02:04:28;;;;;;;6.70;5.60;;;11.10;99.90;;;;;;5070129;28;20443;-70
2022/06/10 02:06:59;;;;;;;7.77;5.77;;;11.10;99.90;;;;;;5070457;28;20729;-69
2022/06/10 02:09:30;;;;;;;5.43;4.90;;;11.10;99.90;;;;;;5070312;28;20454;-70
2022/06/10 02:12:01;;;;;;;5.33;4.83;;;11.00;99.90;;;;;;5069516;28;20471;-70
2022/06/10 02:14:33;;;;;;;8.50;4.97;;;11.00;99.90;;;;;;5069738;28;20457;-70
2022/06/10 02:17:03;;;;;;;7.30;5.40;;;11.00;99.90;;;;;;5070365;28;20455;-70
2022/06/10 02:19:35;;;;;;;7.47;4.90;;;11.00;99.90;;;;;;5070121;28;20447;-67
2022/06/10 02:22:07;;;;;;;6.97;5.87;;;11.00;99.90;;;;;;5069130;28;21195;-70
2022/06/10 02:24:41;;;;;;;5.97;4.97;;;11.00;99.90;;;;;;5069546;28;20453;-70
2022/06/10 02:27:11;;;;;;;6.70;4.77;;;10.90;99.90;;;;;;5069907;28;20451;-70
2022/06/10 02:29:44;;;;;;;7.23;5.67;;;10.90;99.90;;;;;;5069700;28;20976;-67
2022/06/10 02:32:12;;;;;;;7.23;5.30;;;10.80;99.90;;;;;;5069672;28;20549;-70
2022/06/10 02:34:39;;;;;;;6.93;4.83;;;10.90;99.90;;;;;;5069625;28;20445;-70
2022/06/10 02:37:10;;;;;;;9.53;6.23;;;10.90;99.90;;;;;;5069749;28;20450;-70
2022/06/10 02:39:44;;;;;;;7.77;5.00;;;10.90;99.90;;;;;;5070120;28;21120;-70
2022/06/10 02:42:17;;;;;;;8.60;5.50;;;10.90;99.90;;;;;;5069864;28;21279;-70
2022/06/10 02:44:52;;;;;;;8.77;5.33;;;10.80;99.90;;;;;;5069402;28;20443;-70
2022/06/10 02:47:28;;;;;;;8.37;5.27;;;10.70;99.90;;;;;;5069886;28;20446;-71
2022/06/10 02:49:55;;;;;;;8.77;5.00;;;10.80;99.90;;;;;;5068853;28;20453;-69
2022/06/10 02:52:25;;;;;;;5.53;5.03;;;10.80;99.90;;;;;;5069662;28;20467;-70
2022/06/10 02:54:52;;;;;;;6.17;4.53;;;10.80;99.90;;;;;;5069356;28;20454;-70
2022/06/10 02:57:21;;;;;;;6.03;5.43;;;10.80;99.90;;;;;;5069731;28;20521;-70
2022/06/10 03:02:46;;;;;;;6.67;4.50;;;10.70;99.90;;;;;;5069579;28;20450;-70
2022/06/10 03:05:31;;;;;;;7.17;4.73;;;10.70;99.90;;;;;;5069327;28;20446;-70
2022/06/10 03:08:07;;;;;;;7.20;5.20;;;10.60;99.90;;;;;;5069716;28;20443;-71
2022/06/10 03:10:42;;;;;;;7.23;5.47;;;10.60;99.90;;;;;;5068625;28;20956;-70
2022/06/10 03:13:21;;;;;;;7.27;5.70;;;10.60;99.90;;;;;;5069785;28;20438;-70
2022/06/10 03:16:06;;;;;;;5.97;4.87;;;10.50;99.90;;;;;;5069280;28;20458;-70
2022/06/10 03:18:43;;;;;;;6.73;5.33;;;10.60;99.90;;;;;;5069454;28;20449;-70
2022/06/10 03:21:16;;;;;;;8.07;5.50;;;10.60;99.90;;;;;;5068500;28;20490;-70
2022/06/10 03:23:49;;;;;;;6.20;5.23;;;10.60;99.90;;;;;;5069553;28;20471;-70
2022/06/10 03:26:25;;;;;;;7.40;5.13;;;10.60;99.90;;;;;;5069056;28;20447;-70
2022/06/10 03:28:59;;;;;;;6.80;4.57;;;10.60;99.90;;;;;;5069505;28;20449;-70
2022/06/10 03:31:34;;;;;;;8.30;5.00;;;10.60;99.90;;;;;;5068580;28;20458;-70
2022/06/10 03:34:08;;;;;;;6.20;5.33;;;10.50;99.90;;;;;;5069298;28;20955;-70
2022/06/10 03:36:35;;;;;;;6.60;4.47;;;10.60;99.90;;;;;;5069099;28;20793;-70
2022/06/10 03:39:02;;;;;;;8.07;5.80;;;10.60;99.90;;;;;;5069163;28;20447;-70
2022/06/10 03:41:33;;;;;;;8.80;4.83;;;10.60;99.90;;;;;;5068422;28;20566;-70
2022/06/10 03:44:04;;;;;;;8.13;4.90;;;10.60;99.90;;;;;;5069631;28;20447;-70
2022/06/10 03:46:34;;;;;;;6.50;5.47;;;10.50;99.90;;;;;;5068837;28;20442;-70
2022/06/10 03:49:07;;;;;;;6.50;5.33;;;10.60;99.90;;;;;;5071406;28;20454;-70
2022/06/10 03:51:34;;;;;;;10.00;5.67;;;10.70;99.90;;;;;;5072322;28;20466;-70
2022/06/10 03:54:01;;;;;;;9.47;6.00;;;10.70;99.90;;;;;;5073138;28;20461;-70
2022/06/10 03:56:28;;;;;;;6.07;5.17;;;10.80;99.90;;;;;;5072622;28;20443;-70
2022/06/10 03:58:54;;;;;;;11.10;5.60;;;10.70;99.90;;;;;;5073275;28;20447;-70
2022/06/10 04:01:21;;;;;;;6.67;5.17;;;10.80;99.90;;;;;;5072289;28;20487;-70
2022/06/10 04:03:48;;;;;;;5.97;4.80;;;10.90;99.90;;;;;;5073093;28;20449;-70
2022/06/10 04:06:16;;;;;;;7.93;5.30;;;10.90;99.90;;;;;;5072550;28;20451;-69
2022/06/10 04:08:43;;;;;;;10.63;5.57;;;10.90;99.90;;;;;;5071266;28;20443;-70
2022/06/10 04:11:10;;;;;;;9.00;5.53;;;10.90;99.90;;;;;;5072129;28;20459;-70
2022/06/10 04:13:37;;;;;;;8.27;5.33;;;10.90;99.90;;;;;;5072727;28;20446;-70
2022/06/10 04:16:04;;;;;;;8.33;5.30;;;10.90;99.90;;;;;;5071546;28;20825;-70
2022/06/10 04:18:31;;;;;;;6.10;4.87;;;11.00;99.90;;;;;;5072608;28;20572;-69
2022/06/10 04:20:58;;;;;;;5.50;5.00;;;11.10;99.90;;;;;;5071523;28;20493;-70
2022/06/10 04:23:26;;;;;;;7.10;5.80;;;11.20;99.90;;;;;;5072204;28;20451;-70
2022/06/10 04:25:53;;;;;;;6.60;5.00;;;11.20;99.90;;;;;;5072036;28;20447;-69
2022/06/10 04:28:20;;;;;;;7.13;5.37;;;11.30;99.90;;;;;;5072419;28;20447;-69
2022/06/10 04:30:49;;;;;;;6.60;4.83;;;11.30;99.90;;;;;;5071402;28;21034;-70
2022/06/10 04:33:16;;;;;;;7.10;5.10;;;11.40;99.90;;;;;;5072035;28;20449;-69
2022/06/10 04:35:45;;;;;;;6.47;5.40;;;11.50;99.90;;;;;;5071658;28;20803;-69
2022/06/10 04:38:13;;;;;;;6.13;5.53;;;11.50;99.90;;;;;;5071854;28;20455;-69
2022/06/10 04:40:42;;;;;;;8.30;5.60;;;11.60;99.90;;;;;;5071159;28;20446;-70
2022/06/10 04:43:10;;;;;;;7.67;5.20;;;11.70;99.90;;;;;;5071926;28;20449;-69
2022/06/10 04:45:39;;;;;;;7.63;5.30;;;11.80;99.90;;;;;;5071507;28;20481;-69
2022/06/10 04:48:06;;;;;;;8.20;5.03;;;11.80;99.90;;;;;;5071942;28;20817;-70
2022/06/10 04:50:33;;;;;;;9.80;5.37;;;11.90;99.90;;;;;;5070756;28;20445;-70
2022/06/10 04:53:00;;;;;;;5.67;5.07;;;12.00;99.90;;;;;;5071888;28;20909;-70
2022/06/10 04:55:28;;;;;;;8.47;6.97;;;12.00;99.90;;;;;;5071409;28;20833;-69
2022/06/10 04:57:57;;;;;;;7.00;5.10;;;12.00;99.90;;;;;;5071708;28;20454;-70
2022/06/10 05:00:26;;;;;;;9.00;5.27;;;12.00;99.90;;;;;;5070531;28;20466;-70
2022/06/10 05:02:53;;;;;;;10.73;6.17;;;12.10;99.90;;;;;;5071533;28;20510;-70
2022/06/10 05:05:20;;;;;;;7.73;5.33;;;12.20;99.90;;;;;;5071242;28;20447;-71
2022/06/10 05:07:47;;;;;;;5.90;4.97;;;12.30;99.90;;;;;;5071588;28;20443;-70
2022/06/10 05:10:16;;;;;;;6.00;4.90;;;12.30;99.90;;;;;;5070785;28;20443;-70
2022/06/10 05:12:44;;;;;;;6.97;5.20;;;12.40;99.90;;;;;;5071374;28;20562;-68
2022/06/10 05:15:14;;;;;;;6.67;5.10;;;12.50;99.90;;;;;;5070999;28;20447;-69
2022/06/10 05:17:41;;;;;;;11.67;5.70;;;12.60;99.90;;;;;;5071192;28;20443;-70
2022/06/10 05:20:10;;;;;;;8.17;4.90;;;12.70;99.90;;;;;;5070294;28;20453;-70
2022/06/10 05:22:37;;;;;;;5.10;4.60;;;12.80;99.90;;;;;;5071309;28;20497;-71
2022/06/10 05:25:04;;;;;;;7.77;4.47;;;12.80;99.90;;;;;;5070800;28;20443;-70
2022/06/10 05:27:31;;;;;;;5.10;4.00;;;12.80;99.90;;;;;;5070899;28;20447;-69
2022/06/10 05:29:57;;;;;;;7.83;5.03;;;13.00;99.90;;;;;;5070014;28;20442;-70
2022/06/10 05:32:26;;;;;;;6.43;4.13;;;13.00;99.90;;;;;;5070987;28;20459;-71
2022/06/10 05:34:53;;;;;;;6.00;4.27;;;13.10;99.90;;;;;;5070360;28;20539;-70
2022/06/10 05:37:22;;;;;;;7.00;5.20;;;13.10;99.90;;;;;;5070920;28;20833;-70
2022/06/10 05:39:49;;;;;;;4.40;3.93;;;13.20;99.90;;;;;;5070232;28;20455;-70
2022/06/10 05:42:16;;;;;;;10.90;5.20;;;13.30;99.90;;;;;;5070156;28;20483;-70
2022/06/10 05:44:45;;;;;;;7.30;4.10;;;13.30;99.90;;;;;;5070639;28;20447;-70
2022/06/10 05:47:14;;;;;;;7.33;4.60;;;13.40;99.90;;;;;;5070848;28;20521;-70
2022/06/10 05:49:45;;;;;;;7.60;3.80;;;13.50;99.90;;;;;;5070588;28;20443;-71
2022/06/10 05:52:14;;;;;;;8.23;4.20;;;13.60;99.90;;;;;;5070276;28;21040;-71
2022/06/10 05:54:44;;;;;;;5.37;4.30;;;13.70;99.90;;;;;;5070066;28;20973;-71
2022/06/10 05:57:11;;;;;;;4.57;3.90;;;13.90;99.90;;;;;;5070014;28;20961;-70
2022/06/10 05:59:38;;;;;;;9.20;3.97;;;13.90;99.90;;;;;;5069986;28;20959;-69
2022/06/10 06:02:08;;;;;;;6.20;4.10;;;14.00;99.90;;;;;;5069410;28;20874;-69
2022/06/10 06:04:35;;;;;;;4.57;4.07;;;14.10;99.90;;;;;;5070194;28;20450;-70
2022/06/10 06:07:03;;;;;;;6.23;4.20;;;14.20;99.90;;;;;;5070148;28;20451;-70
2022/06/10 06:09:32;;;;;;;6.10;3.83;;;14.30;99.90;;;;;;5070266;28;20886;-70
2022/06/10 06:11:58;;;;;;;8.13;3.73;;;14.40;99.90;;;;;;5068698;28;20474;-69
2022/06/10 06:14:26;;;;;;;11.30;5.23;;;14.50;99.90;;;;;;5069710;28;20454;-70
2022/06/10 06:16:57;;;;;;;8.57;4.53;;;14.60;99.90;;;;;;5069914;28;20965;-71
2022/06/10 06:19:25;;;;;;;6.37;4.10;;;14.70;99.90;;;;;;5070134;28;20447;-70
2022/06/10 06:21:52;;;;;;;6.40;3.80;;;14.80;99.90;;;;;;5068968;28;20490;-70
2022/06/10 06:24:21;;;;;;;5.70;3.50;;;14.90;99.90;;;;;;5069546;28;20450;-71
2022/06/10 06:26:48;;;;;;;8.37;4.27;;;14.90;99.90;;;;;;5069961;28;20459;-70
2022/06/10 06:29:15;;;;;;;5.63;4.10;;;15.00;99.90;;;;;;5070157;28;20522;-70
2022/06/10 06:31:42;;;;;;;5.87;3.10;;;15.10;99.90;;;;;;5069326;28;20481;-70
2022/06/10 06:34:09;;;;;;;5.77;4.10;;;15.20;99.90;;;;;;5070133;28;20535;-70
2022/06/10 06:36:42;;;;;;;4.20;3.57;;;15.30;99.90;;;;;;5069730;28;20453;-70
2022/06/10 06:39:09;;;;;;;5.13;3.50;;;15.40;99.90;;;;;;5070339;28;20508;-70
2022/06/10 06:41:37;;;;;;;6.90;3.20;;;15.50;99.90;;;;;;5069337;28;20474;-70
2022/06/10 06:44:05;;;;;;;4.87;4.00;;;15.70;99.90;;;;;;5070195;28;20558;-70
2022/06/10 06:46:34;;;;;;;5.37;4.00;;;15.80;99.90;;;;;;5069784;28;20451;-70
2022/06/10 06:49:01;;;;;;;6.57;3.40;;;15.90;99.90;;;;;;5069780;28;20537;-70
2022/06/10 06:51:28;;;;;;;8.10;3.70;;;16.00;99.90;;;;;;5068996;28;20856;-70
2022/06/10 06:53:55;;;;;;;4.90;3.50;;;16.00;99.90;;;;;;5070019;28;20443;-70
2022/06/10 06:56:22;;;;;;;5.33;2.90;;;16.30;99.90;;;;;;5069702;28;20474;-70
2022/06/10 06:58:50;;;;;;;8.60;3.60;;;16.40;99.90;;;;;;5069806;28;20451;-71
2022/06/10 07:01:17;;;;;;;7.90;3.97;;;16.50;99.90;;;;;;5068820;28;20479;-70
2022/06/10 07:03:44;;;;;;;4.00;3.03;;;16.60;99.90;;;;;;5069479;28;21028;-70
2022/06/10 07:06:11;;;;;;;5.47;3.93;;;16.70;99.90;;;;;;5069320;28;20529;-70
2022/06/10 07:08:39;;;;;;;5.70;3.07;;;16.80;99.90;;;;;;5069772;28;20516;-69
2022/06/10 07:11:08;;;;;;;7.43;3.93;;;16.90;99.90;;;;;;5068763;28;20474;-70
2022/06/10 07:13:36;;;;;;;6.33;3.47;;;17.00;99.90;;;;;;5069408;28;20851;-70
2022/06/10 07:16:06;;;;;;;6.30;3.07;;;17.10;99.90;;;;;;5069165;28;20473;-70
2022/06/10 07:18:34;;;;;;;5.47;3.33;;;17.20;99.90;;;;;;5069556;28;20445;-70
2022/06/10 07:21:01;;;;;;;14.90;3.57;;;17.30;99.90;;;;;;5068779;28;20474;-69
2022/06/10 07:23:28;;;;;;;6.40;3.80;;;17.40;99.90;;;;;;5070868;28;20858;-70
2022/06/10 07:25:55;;;;;;;5.60;3.63;;;17.50;99.90;;;;;;5073143;28;20446;-70
2022/06/10 07:28:22;;;;;;;6.43;3.70;;;17.50;99.90;;;;;;5073430;28;20446;-70
2022/06/10 07:30:49;;;;;;;6.80;4.07;;;17.50;99.90;;;;;;5072312;28;20477;-70
2022/06/10 07:33:18;;;;;;;5.30;3.80;;;17.60;99.90;;;;;;5073294;28;20446;-70
2022/06/10 07:35:45;;;;;;;10.97;4.23;;;17.60;99.90;;;;;;5072742;28;20533;-70
2022/06/10 07:38:12;;;;;;;10.10;3.80;;;17.60;99.90;;;;;;5073194;28;20448;-70
2022/06/10 07:43:27;;;;;;;5.77;3.50;;;17.70;99.90;;;;;;5073096;28;20470;-70
2022/06/10 07:45:54;;;;;;;10.10;3.33;;;17.90;99.90;;;;;;5072793;28;20480;-70
2022/06/10 07:48:22;;;;;;;9.03;4.23;;;18.00;99.90;;;;;;5072828;28;20449;-70
2022/06/10 07:50:50;;;;;;;3.93;3.03;;;18.10;99.90;;;;;;5072009;28;20887;-70
2022/06/10 07:53:17;;;;;;;6.70;4.00;;;18.30;99.90;;;;;;5072790;28;20443;-68
2022/06/10 07:55:45;;;;;;;5.90;3.63;;;18.30;99.90;;;;;;5072204;28;20445;-70
2022/06/10 07:58:13;;;;;;;5.40;3.70;;;18.40;99.90;;;;;;5072751;28;20545;-69
2022/06/10 08:00:40;;;;;;;6.60;3.30;;;18.40;99.90;;;;;;5071562;28;20438;-69
2022/06/10 08:03:07;;;;;;;5.50;3.97;;;18.40;99.90;;;;;;5072739;28;20340;-69
2022/06/10 08:05:36;;;;;;;7.20;4.40;;;18.50;99.90;;;;;;5071953;28;20982;-69
2022/06/10 08:08:04;;;;;;;6.70;3.67;;;18.50;99.90;;;;;;5072507;28;20447;-70
2022/06/10 08:10:34;;;;;;;5.73;3.77;;;18.60;99.90;;;;;;5071254;28;20541;-69
2022/06/10 08:13:01;;;;;;;8.30;3.73;;;18.70;99.90;;;;;;5072444;28;20465;-70
2022/06/10 08:15:29;;;;;;;8.67;3.70;;;18.90;99.90;;;;;;5071956;28;20962;-70
2022/06/10 08:17:57;;;;;;;4.30;3.90;;;19.00;99.90;;;;;;5072267;28;20447;-70
2022/06/10 08:22:32;;;;;;;4.70;3.40;;;19.20;99.90;;;;;;5071358;28;20820;-68
2022/06/10 08:23:14;;;;;;;9.03;3.73;;;19.40;99.90;;;;;;5072269;28;20510;-69
2022/06/10 08:25:42;;;;;;;11.20;3.30;;;19.50;99.90;;;;;;5071875;28;20469;-69
2022/06/10 08:28:10;;;;;;;7.20;3.50;;;19.60;99.90;;;;;;5072177;28;20447;-69
2022/06/10 08:30:36;;;;;;;7.30;2.90;;;19.70;99.90;;;;;;5071143;28;20573;-70
2022/06/10 08:33:04;;;;;;;5.57;2.70;;;19.90;99.90;;;;;;5071971;28;20446;-68
2022/06/10 08:35:31;;;;;;;5.77;3.60;;;20.00;99.90;;;;;;5071110;28;20956;-70
2022/06/10 08:37:58;;;;;;;5.53;3.00;;;20.00;99.90;;;;;;5072146;28;20817;-70
2022/06/10 08:40:33;;;;;;;8.60;2.63;;;20.10;99.90;;;;;;5071350;28;20439;-70
2022/06/10 08:43:06;;;;;;;5.80;2.87;;;20.30;99.90;;;;;;5072226;28;20558;-69
2022/06/10 08:45:39;;;;;;;5.60;3.03;;;20.30;99.90;;;;;;5071451;28;20455;-70
2022/06/10 08:48:16;;;;;;;4.47;3.00;;;20.50;99.90;;;;;;5071726;28;20447;-70
2022/06/10 08:50:56;;;;;;;6.30;3.20;;;20.60;99.90;;;;;;5071063;28;20457;-69
2022/06/10 08:53:57;;;;;;;7.47;3.00;;;20.50;99.90;;;;;;5071956;28;20439;-69
2022/06/10 08:56:31;;;;;;;4.33;2.73;;;20.50;99.90;;;;;;5034779;28;20457;-70
2022/06/10 08:59:02;;;;;;;4.00;2.60;;;20.50;99.90;;;;;;5071721;28;20450;-69
2022/06/10 09:01:32;;;;;;;4.37;2.23;;;20.50;99.90;;;;;;5070496;28;20478;-70
2022/06/10 09:04:05;;;;;;;4.43;2.50;;;20.60;99.90;;;;;;5071677;28;20532;-70
2022/06/10 09:06:38;;;;;;;7.33;3.30;;;20.80;99.90;;;;;;5071190;28;21005;-70
2022/06/10 09:09:07;;;;;;;8.87;3.13;;;21.00;99.90;;;;;;5072044;28;20438;-70
2022/06/10 09:11:41;;;;;;;5.80;3.10;;;21.20;99.90;;;;;;5071044;28;20544;-68
2022/06/10 09:14:16;;;;;;;6.83;3.27;;;21.30;99.90;;;;;;5071758;28;20430;-70
2022/06/10 09:16:48;;;;;;;6.70;3.10;;;21.40;99.90;;;;;;5071516;28;20446;-70
2022/06/10 09:19:23;;;;;;;3.97;2.90;;;21.60;99.90;;;;;;5071439;28;20451;-70
2022/06/10 09:21:58;;;;;;;6.40;2.73;;;21.90;99.90;;;;;;5070777;28;20562;-71
2022/06/10 09:24:29;;;;;;;9.30;3.10;;;22.00;99.90;;;;;;5070823;28;21026;-68
2022/06/10 09:27:10;;;;;;;5.03;2.67;;;22.20;99.90;;;;;;5071364;28;20829;-68
2022/06/10 09:29:38;;;;;;;8.03;2.90;;;22.40;99.90;;;;;;5071020;28;20442;-70
2022/06/10 09:32:10;;;;;;;10.60;9.10;;;22.30;99.90;;;;;;5070292;28;20478;-70
2022/06/10 09:34:46;;;;;;;18.90;15.60;;;22.30;99.90;;;;;;5070743;28;20451;-70
2022/06/10 09:37:22;;;;;;;8.60;3.30;;;22.60;99.90;;;;;;5070985;28;20446;-70
2022/06/10 09:42:56;;;;;;;4.13;2.80;;;22.80;99.90;;;;;;5070817;28;20490;-70
2022/06/10 09:45:29;;;;;;;6.23;3.00;;;22.50;99.90;;;;;;5069887;28;20807;-70
2022/06/10 09:48:09;;;;;;;5.30;2.20;;;22.50;99.90;;;;;;5070989;28;20447;-70
2022/06/10 09:50:43;;;;;;;4.70;1.93;;;22.60;99.90;;;;;;5069753;28;20508;-70
2022/06/10 09:53:26;;;;;;;5.70;2.77;;;22.70;99.90;;;;;;5070966;28;20439;-71
2022/06/10 09:56:19;;;;;;;3.80;2.30;;;23.00;99.90;;;;;;5070131;28;20444;-70
2022/06/10 09:59:04;;;;;;;4.43;2.20;;;23.30;96.60;;;;;;5070323;28;20447;-71
2022/06/10 10:01:37;;;;;;;5.03;2.37;;;23.60;96.60;;;;;;5069342;28;20475;-70
2022/06/10 10:04:25;;;;;;;6.37;2.40;;;24.80;95.40;;;;;;5070253;28;20487;-71
2022/06/10 10:07:00;;;;;;;4.47;2.53;;;25.60;93.20;;;;;;5070192;28;20451;-71
2022/06/10 10:09:47;;;;;;;5.47;2.50;;;25.10;91.10;;;;;;5070139;28;20904;-70
2022/06/10 10:12:25;;;;;;;6.27;2.20;;;25.20;93.20;;;;;;5070228;28;20463;-71
2022/06/10 10:15:00;;;;;;;5.70;2.43;;;25.80;92.80;;;;;;5069760;28;20450;-71
2022/06/10 10:17:56;;;;;;;6.40;2.10;;;26.70;91.70;;;;;;5069938;28;20450;-71
2022/06/10 10:20:28;;;;;;;4.40;2.17;;;26.90;82.90;;;;;;5069418;28;20473;-69
2022/06/10 10:23:07;;;;;;;4.00;1.90;;;26.70;84.10;;;;;;5070345;28;20479;-71
2022/06/10 10:25:34;;;;;;;3.20;1.63;;;26.90;83.10;;;;;;5069675;28;20449;-71
2022/06/10 10:28:07;;;;;;;6.90;2.73;;;27.60;78.90;;;;;;5069792;28;20479;-71
2022/06/10 10:30:41;;;;;;;3.30;1.57;;;28.10;81.60;;;;;;5069308;28;20462;-71
2022/06/10 10:33:15;;;;;;;6.93;2.83;;;29.00;75.80;;;;;;5070073;28;20443;-71
2022/06/10 10:35:46;;;;;;;3.00;1.70;;;28.50;76.70;;;;;;5069327;28;20473;-71
2022/06/10 10:38:15;;;;;;;4.60;1.83;;;28.30;76.60;;;;;;5069634;28;20451;-70
2022/06/10 10:40:44;;;;;;;5.43;2.03;;;28.30;74.00;;;;;;5069130;28;20473;-71
2022/06/10 10:43:15;;;;;;;5.40;2.00;;;28.80;77.50;;;;;;5069307;28;20482;-71
2022/06/10 10:45:55;;;;;;;5.13;2.10;;;29.50;77.30;;;;;;5069300;28;20450;-71
2022/06/10 10:48:25;;;;;;;5.17;1.93;;;29.00;68.60;;;;;;5069570;28;20937;-71
2022/06/10 10:50:56;;;;;;;11.77;2.70;;;27.70;71.60;;;;;;5068699;28;20524;-70
2022/06/10 10:53:27;;;;;;;5.40;2.50;;;27.60;72.90;;;;;;5069747;28;20447;-71
2022/06/10 10:55:57;;;;;;;4.13;1.80;;;27.40;73.20;;;;;;5069440;28;20454;-71
2022/06/10 10:58:29;;;;;;;4.73;2.03;;;27.60;73.40;;;;;;5070556;28;20458;-71
2022/06/10 11:01:01;;;;;;;5.30;1.77;;;27.70;73.90;;;;;;5068706;28;20482;-71
2022/06/10 11:03:29;;;;;;;4.57;1.90;;;28.00;74.70;;;;;;5069413;28;20494;-70
2022/06/10 11:05:58;;;;;;;4.53;1.77;;;29.00;76.20;;;;;;5069577;28;20600;-71
2022/06/10 11:08:30;;;;;;;3.27;2.10;;;29.60;69.50;;;;;;5071146;28;20458;-72
2022/06/10 11:11:03;;;;;;;3.57;1.73;;;30.20;79.30;;;;;;5068549;28;20855;-72
2022/06/10 11:13:44;;;;;;;6.57;1.90;;;31.00;72.30;;;;;;5069488;28;20443;-70
2022/06/10 11:16:44;;;;;;;4.27;1.80;;;31.30;70.20;;;;;;5069166;28;20550;-68
2022/06/10 11:19:21;;;;;;;2.63;1.50;;;31.60;72.90;;;;;;5069427;28;20453;-71
2022/06/10 11:21:52;;;;;;;5.80;2.20;;;31.90;70.30;;;;;;5068420;28;20843;-71
2022/06/10 11:24:26;;;;;;;3.20;1.70;;;32.10;65.90;;;;;;5068873;28;21135;-70
2022/06/10 11:26:55;;;;;;;3.10;1.83;;;32.10;61.20;;;;;;5069306;28;20454;-71
2022/06/10 11:29:22;;;;;;;3.83;1.37;;;32.30;63.40;;;;;;5069330;28;20446;-71
2022/06/10 11:31:55;;;;;;;3.10;1.80;;;32.10;67.00;;;;;;5068310;28;20989;-71
2022/06/10 11:34:26;;;;;;;4.20;1.60;;;32.40;58.80;;;;;;5068728;28;20453;-71
2022/06/10 11:36:54;;;;;;;6.37;1.80;;;32.50;61.40;;;;;;5069380;28;20451;-71
2022/06/10 11:39:27;;;;;;;3.07;1.90;;;32.70;56.20;;;;;;5069347;28;20912;-70
2022/06/10 11:42:08;;;;;;;3.90;1.77;;;30.90;56.80;;;;;;5068344;28;20467;-70
2022/06/10 11:44:41;;;;;;;3.30;2.00;;;29.70;60.40;;;;;;5068895;28;20725;-71
2022/06/10 11:47:15;;;;;;;15.00;2.17;;;29.90;63.00;;;;;;5069202;28;20454;-70
2022/06/10 11:49:48;;;;;;;4.07;1.93;;;30.60;60.90;;;;;;5069449;28;20441;-71
2022/06/10 11:52:25;;;;;;;5.43;1.90;;;30.40;61.60;;;;;;5069348;28;20479;-70
2022/06/10 11:54:58;;;;;;;4.00;2.17;;;30.50;61.60;;;;;;5069009;28;20443;-71
2022/06/10 12:00:23;;;;;;;5.53;2.10;;;30.60;61.80;;;;;;5068645;28;20442;-70
2022/06/10 12:03:00;;;;;;;5.80;2.10;;;29.90;60.20;;;;;;5069385;28;20461;-71
2022/06/10 12:05:38;;;;;;;6.90;2.40;;;29.10;61.40;;;;;;5068859;28;20487;-70
2022/06/10 12:08:11;;;;;;;4.40;1.80;;;29.20;63.60;;;;;;5069172;28;20458;-69
2022/06/10 12:10:48;;;;;;;6.90;2.07;;;29.20;61.00;;;;;;5071524;28;20454;-69
2022/06/10 12:13:16;;;;;;;4.93;1.90;;;28.90;62.90;;;;;;5072707;28;20443;-70
2022/06/10 12:15:53;;;;;;;7.13;2.13;;;28.30;66.70;;;;;;5072328;28;20473;-70
2022/06/10 12:18:24;;;;;;;3.37;1.83;;;27.90;64.60;;;;;;5072376;28;20945;-70
2022/06/10 12:20:57;;;;;;;7.23;2.10;;;27.60;74.40;;;;;;5071710;28;20463;-70
2022/06/10 12:23:26;;;;;;;4.90;2.47;;;28.80;74.10;;;;;;5072391;28;20474;-70
2022/06/10 12:26:09;;;;;;;4.63;2.40;;;28.70;61.80;;;;;;5071772;28;20550;-69
2022/06/10 12:28:42;;;;;;;5.63;2.77;;;27.40;65.60;;;;;;5072386;28;20447;-70
2022/06/10 12:31:21;;;;;;;3.70;1.97;;;26.70;68.10;;;;;;5071542;28;20467;-68
2022/06/10 12:33:55;;;;;;;4.50;2.40;;;26.00;71.30;;;;;;5072088;28;20476;-67
2022/06/10 12:36:36;;;;;;;5.53;2.50;;;25.20;73.30;;;;;;5071598;28;20446;-70
2022/06/10 12:39:03;;;;;;;4.63;2.50;;;24.90;75.40;;;;;;5072104;28;20451;-69
2022/06/10 12:41:37;;;;;;;4.60;2.47;;;24.90;76.50;;;;;;5071345;28;20901;-68
2022/06/10 12:44:07;;;;;;;6.80;2.20;;;25.10;81.30;;;;;;5072218;28;20510;-70
2022/06/10 12:46:41;;;;;;;6.97;2.13;;;25.00;77.00;;;;;;5071667;28;20474;-70
2022/06/10 12:49:19;;;;;;;5.97;2.20;;;25.30;75.40;;;;;;5071889;28;20446;-69
2022/06/10 12:51:59;;;;;;;3.47;2.00;;;26.80;82.00;;;;;;5070763;28;20467;-69
2022/06/10 12:54:34;;;;;;;4.10;2.00;;;28.00;79.10;;;;;;5071497;28;21123;-70
2022/06/10 12:57:35;;;;;;;4.67;2.00;;;28.20;70.20;;;;;;5071622;28;20451;-69
2022/06/10 13:00:38;;;;;;;5.53;2.57;;;27.60;68.00;;;;;;5070621;28;20438;-70
2022/06/10 13:03:33;;;;;;;3.53;2.07;;;27.30;77.30;;;;;;5071739;28;20442;-69
2022/06/10 13:06:21;;;;;;;3.43;1.80;;;28.80;71.70;;;;;;5035623;28;20447;-70
2022/06/10 13:08:51;;;;;;;3.73;2.10;;;30.40;63.90;;;;;;5071381;28;20447;-71
2022/06/10 13:11:33;;;;;;;4.70;1.80;;;32.30;68.90;;;;;;5070768;28;20470;-71
2022/06/10 13:14:33;;;;;;;4.17;1.83;;;33.70;60.80;;;;;;5071426;28;20443;-70
2022/06/10 13:17:24;;;;;;;3.60;1.80;;;34.00;53.30;;;;;;5071429;28;20500;-70
2022/06/10 13:20:18;;;;;;;4.40;2.20;;;34.90;54.20;;;;;;5070317;28;20447;-69
2022/06/10 13:23:24;;;;;;;3.63;1.70;;;35.30;53.60;;;;;;5070734;28;20466;-70